Time;durP1;ratioP1;P1;durP2;ratioP2;P2;SDS_P1;SDS_P2;PMS_P1;PMS_P2;Temp;Humidity;BMP_temperature;BMP_pressure;BME280_temperature;BME280_humidity;BME280_pressure;Samples;Min_cycle;Max_cycle;Signal;HPM_P1;HPM_P2
2022/11/16 00:01:31;;;;;;;28.95;18.80;;;;;;;;;;5023407;28;20030;-82
2022/11/16 00:03:58;;;;;;;29.95;18.27;;;;;;;;;;5034207;28;20056;-81
2022/11/16 00:06:25;;;;;;;32.03;20.30;;;;;;;;;;5016030;28;20044;-82
2022/11/16 00:11:39;;;;;;;31.33;18.13;;;;;;;;;;5033401;28;20079;-82
2022/11/16 00:14:06;;;;;;;30.40;17.50;;;;;;;;;;5032875;28;20030;-82
2022/11/16 00:16:32;;;;;;;28.55;16.65;;;;;;;;;;5015584;28;20117;-82
2022/11/16 00:18:59;;;;;;;31.77;16.70;;;;;;;;;;5032942;28;20025;-82
2022/11/16 00:21:26;;;;;;;28.50;16.60;;;;;;;;;;5033093;28;20052;-81
2022/11/16 00:23:52;;;;;;;26.33;15.52;;;;;;;;;;5032635;28;20032;-82
2022/11/16 00:26:18;;;;;;;29.50;16.60;;;;;;;;;;5032697;28;20079;-82
2022/11/16 00:28:44;;;;;;;32.58;17.80;;;;;;;;;;5032640;28;20040;-82
2022/11/16 00:31:10;;;;;;;28.27;16.33;;;;;;;;;;5015436;28;20025;-82
2022/11/16 00:33:37;;;;;;;26.15;15.85;;;;;;;;;;5032807;28;20075;-82
2022/11/16 00:36:04;;;;;;;33.47;18.42;;;;;;;;;;5032821;28;20036;-82
2022/11/16 00:38:30;;;;;;;25.48;15.23;;;;;;;;;;5033225;28;20032;-82
2022/11/16 00:40:56;;;;;;;24.77;14.60;;;;;;;;;;5032718;28;20072;-82
2022/11/16 00:43:22;;;;;;;26.02;15.38;;;;;;;;;;5032960;28;20017;-81
2022/11/16 00:45:48;;;;;;;26.17;15.10;;;;;;;;;;5032787;28;20032;-82
2022/11/16 00:48:14;;;;;;;27.08;14.80;;;;;;;;;;5032970;28;20061;-82
2022/11/16 00:50:40;;;;;;;28.80;15.18;;;;;;;;;;5032987;28;20487;-82
2022/11/16 00:53:07;;;;;;;23.88;14.48;;;;;;;;;;5015172;28;20034;-82
2022/11/16 00:55:33;;;;;;;24.73;14.65;;;;;;;;;;5014999;28;20382;-82
2022/11/16 00:57:59;;;;;;;22.73;13.88;;;;;;;;;;5011128;28;20100;-82
2022/11/16 01:00:25;;;;;;;28.48;14.45;;;;;;;;;;5013105;28;20053;-82
2022/11/16 01:02:53;;;;;;;30.92;16.73;;;;;;;;;;5012922;28;20030;-81
2022/11/16 01:05:19;;;;;;;22.33;14.05;;;;;;;;;;5012905;28;20392;-82
2022/11/16 01:07:46;;;;;;;26.35;14.70;;;;;;;;;;5013017;28;20022;-82
2022/11/16 01:10:13;;;;;;;26.75;16.00;;;;;;;;;;5013195;28;20034;-82
2022/11/16 01:12:39;;;;;;;24.45;15.18;;;;;;;;;;5013290;28;20026;-82
2022/11/16 01:15:09;;;;;;;23.23;15.23;;;;;;;;;;5013769;28;20058;-82
2022/11/16 01:17:35;;;;;;;25.63;15.38;;;;;;;;;;5016992;28;20030;-82
2022/11/16 01:20:03;;;;;;;27.55;16.02;;;;;;;;;;5016524;28;20411;-81
2022/11/16 01:22:30;;;;;;;25.02;14.55;;;;;;;;;;5016716;28;20100;-81
2022/11/16 01:24:56;;;;;;;27.48;16.02;;;;;;;;;;5016889;28;20092;-82
2022/11/16 01:27:22;;;;;;;26.90;16.20;;;;;;;;;;5017398;28;20097;-82
2022/11/16 01:29:48;;;;;;;31.38;15.95;;;;;;;;;;5026676;28;20025;-81
2022/11/16 01:32:14;;;;;;;25.70;16.33;;;;;;;;;;5037096;28;20108;-81
2022/11/16 01:34:41;;;;;;;27.02;15.25;;;;;;;;;;5019369;28;20052;-82
2022/11/16 01:37:07;;;;;;;24.65;15.25;;;;;;;;;;5036903;28;20074;-82
2022/11/16 01:39:33;;;;;;;25.00;15.63;;;;;;;;;;5036619;28;20049;-81
2022/11/16 01:41:59;;;;;;;22.90;14.57;;;;;;;;;;5019223;28;20033;-82
2022/11/16 01:44:31;;;;;;;22.67;14.98;;;;;;;;;;5037023;28;20024;-81
2022/11/16 01:46:58;;;;;;;25.92;16.23;;;;;;;;;;5036570;28;20561;-81
2022/11/16 01:49:25;;;;;;;21.55;14.13;;;;;;;;;;5018950;28;20439;-81
2022/11/16 01:51:55;;;;;;;24.42;14.43;;;;;;;;;;5036639;28;20116;-81
2022/11/16 01:54:21;;;;;;;21.75;14.40;;;;;;;;;;5036264;28;20068;-81
2022/11/16 01:56:47;;;;;;;19.88;13.98;;;;;;;;;;5036627;28;20041;-82
2022/11/16 01:59:14;;;;;;;24.77;14.85;;;;;;;;;;5018472;28;20499;-81
2022/11/16 02:01:41;;;;;;;25.27;14.52;;;;;;;;;;5036410;28;20038;-81
2022/11/16 02:04:10;;;;;;;22.75;15.07;;;;;;;;;;5036541;28;20028;-81
2022/11/16 02:06:54;;;;;;;21.15;14.23;;;;;;;;;;5036562;28;20051;-81
2022/11/16 02:09:52;;;;;;;25.55;15.60;;;;;;;;;;5036161;28;20033;-81
2022/11/16 02:12:27;;;;;;;23.83;15.57;;;;;;;;;;5003535;28;20471;-81
2022/11/16 02:15:05;;;;;;;29.73;16.35;;;;;;;;;;5035631;28;20426;-81
2022/11/16 02:17:36;;;;;;;31.10;17.40;;;;;;;;;;5035098;28;20026;-82
2022/11/16 02:20:15;;;;;;;23.38;15.80;;;;;;;;;;5035249;28;20018;-82
2022/11/16 02:23:04;;;;;;;28.63;16.98;;;;;;;;;;5035625;28;20021;-82
2022/11/16 02:25:33;;;;;;;30.55;17.92;;;;;;;;;;5035059;28;20611;-82
2022/11/16 02:28:05;;;;;;;26.55;16.23;;;;;;;;;;5035459;28;20424;-82
2022/11/16 02:30:31;;;;;;;28.73;16.92;;;;;;;;;;5017390;28;20472;-82
2022/11/16 02:33:02;;;;;;;29.08;17.08;;;;;;;;;;5035176;28;20478;-82
2022/11/16 02:35:47;;;;;;;29.33;17.23;;;;;;;;;;5034908;28;20034;-81
2022/11/16 02:38:16;;;;;;;28.17;17.25;;;;;;;;;;5017350;28;20026;-81
2022/11/16 02:40:45;;;;;;;30.27;18.15;;;;;;;;;;5034718;28;20433;-81
2022/11/16 02:43:13;;;;;;;25.23;16.13;;;;;;;;;;5034745;28;20112;-81
2022/11/16 02:45:43;;;;;;;25.30;17.00;;;;;;;;;;5034916;28;20057;-81
2022/11/16 02:48:15;;;;;;;34.63;17.80;;;;;;;;;;5017124;28;20495;-81
2022/11/16 02:50:42;;;;;;;30.77;16.98;;;;;;;;;;5035170;28;20447;-81
2022/11/16 02:53:08;;;;;;;37.92;20.05;;;;;;;;;;5034925;28;20029;-81
2022/11/16 02:55:35;;;;;;;29.17;17.80;;;;;;;;;;5017192;28;20033;-81
2022/11/16 02:58:03;;;;;;;23.83;16.73;;;;;;;;;;5035012;28;20075;-81
2022/11/16 03:00:42;;;;;;;26.63;16.48;;;;;;;;;;5034925;28;20337;-81
2022/11/16 03:03:18;;;;;;;27.58;16.83;;;;;;;;;;5034828;28;20026;-81
2022/11/16 03:05:49;;;;;;;29.10;17.25;;;;;;;;;;5034941;28;20112;-81
2022/11/16 03:08:33;;;;;;;27.95;16.92;;;;;;;;;;5034955;28;20038;-81
2022/11/16 03:13:59;;;;;;;24.42;16.23;;;;;;;;;;5035255;28;20111;-81
2022/11/16 03:16:27;;;;;;;26.98;17.02;;;;;;;;;;5034629;28;20116;-81
2022/11/16 03:18:55;;;;;;;23.65;15.88;;;;;;;;;;5034685;28;20032;-81
2022/11/16 03:21:24;;;;;;;24.95;15.70;;;;;;;;;;5034542;28;20460;-81
2022/11/16 03:23:50;;;;;;;24.83;16.52;;;;;;;;;;5034509;28;20056;-81
2022/11/16 03:26:18;;;;;;;25.45;16.40;;;;;;;;;;5034626;28;20094;-81
2022/11/16 03:28:57;;;;;;;28.10;17.95;;;;;;;;;;5033000;28;20507;-81
2022/11/16 03:31:27;;;;;;;25.92;16.33;;;;;;;;;;5014666;28;20053;-81
2022/11/16 03:33:55;;;;;;;24.63;16.33;;;;;;;;;;5014622;28;20514;-81
2022/11/16 03:36:27;;;;;;;23.60;15.88;;;;;;;;;;5014446;28;20030;-81
2022/11/16 03:38:54;;;;;;;27.45;16.52;;;;;;;;;;5014243;28;20068;-82
2022/11/16 03:41:21;;;;;;;27.65;17.17;;;;;;;;;;5014505;28;20438;-81
2022/11/16 03:43:48;;;;;;;23.90;15.93;;;;;;;;;;5034426;28;20022;-81
2022/11/16 03:46:16;;;;;;;24.65;16.00;;;;;;;;;;5034415;28;20033;-82
2022/11/16 03:48:42;;;;;;;18.63;13.50;;;;;;;;;;5015721;28;20048;-81
2022/11/16 03:51:09;;;;;;;22.23;14.50;;;;;;;;;;5016514;28;20472;-81
2022/11/16 03:53:35;;;;;;;16.50;11.45;;;;;;;;;;5039683;28;20033;-82
2022/11/16 03:56:01;;;;;;;13.77;9.77;;;;;;;;;;5023066;28;20034;-82
2022/11/16 03:58:27;;;;;;;16.25;10.25;;;;;;;;;;5041239;28;20017;-82
2022/11/16 04:00:53;;;;;;;15.48;9.68;;;;;;;;;;5040776;28;20029;-82
2022/11/16 04:03:20;;;;;;;13.63;8.45;;;;;;;;;;5058623;28;20024;-82
2022/11/16 04:25:19;;;;;;;10.18;5.03;;;;;;;;;;5058074;28;20415;-82
2022/11/16 04:37:47;;;;;;;8.70;4.97;;;;;;;;;;5026114;28;20037;-81
2022/11/16 04:38:45;;;;;;;10.90;5.18;;;;;;;;;;5016556;28;20122;-82
2022/11/16 04:42:13;;;;;;;7.75;5.07;;;;;;;;;;5032319;28;20037;-82
2022/11/16 04:43:57;;;;;;;8.73;5.13;;;;;;;;;;5036189;28;20034;-81
2022/11/16 04:49:08;;;;;;;8.55;5.55;;;;;;;;;;5037826;28;20129;-82
2022/11/16 04:51:34;;;;;;;8.55;5.70;;;;;;;;;;5040104;28;20109;-82
2022/11/16 04:54:00;;;;;;;13.15;5.25;;;;;;;;;;5040430;28;20060;-81
2022/11/16 04:56:26;;;;;;;10.90;5.75;;;;;;;;;;5039818;28;20038;-81
2022/11/16 04:58:52;;;;;;;8.40;5.10;;;;;;;;;;5035165;28;20025;-82
2022/11/16 05:02:06;;;;;;;9.00;4.93;;;;;;;;;;5032543;28;20039;-81
2022/11/16 05:04:04;;;;;;;11.35;5.57;;;;;;;;;;5037092;28;20116;-81
2022/11/16 05:06:30;;;;;;;10.13;4.85;;;;;;;;;;5034547;28;20033;-81
2022/11/16 05:08:56;;;;;;;9.25;4.68;;;;;;;;;;5034170;28;20032;-81
2022/11/16 05:11:22;;;;;;;12.25;5.50;;;;;;;;;;5009881;28;20039;-81
2022/11/16 05:13:48;;;;;;;8.55;4.85;;;;;;;;;;5024347;28;20043;-81
2022/11/16 05:16:14;;;;;;;11.32;5.68;;;;;;;;;;5035206;28;20033;-81
2022/11/16 05:18:40;;;;;;;12.35;5.93;;;;;;;;;;5029968;28;20029;-81
2022/11/16 05:21:06;;;;;;;9.63;5.57;;;;;;;;;;5032763;28;20030;-81
2022/11/16 05:26:17;;;;;;;13.75;6.15;;;;;;;;;;5024148;28;20398;-81
2022/11/16 05:28:43;;;;;;;11.73;5.88;;;;;;;;;;5038817;28;20532;-81
2022/11/16 05:31:09;;;;;;;11.07;5.63;;;;;;;;;;5020488;28;20040;-81
2022/11/16 05:33:35;;;;;;;16.98;9.82;;;;;;;;;;5038568;28;20033;-81
2022/11/16 05:36:01;;;;;;;22.77;14.65;;;;;;;;;;5038810;28;20030;-81
2022/11/16 05:38:27;;;;;;;20.33;10.60;;;;;;;;;;5038448;28;20018;-81
2022/11/16 05:40:53;;;;;;;15.70;7.78;;;;;;;;;;5026446;28;20026;-81
2022/11/16 05:43:19;;;;;;;10.75;6.90;;;;;;;;;;5018663;28;20034;-81
2022/11/16 05:45:45;;;;;;;15.43;6.88;;;;;;;;;;5018595;28;20026;-81
2022/11/16 05:48:11;;;;;;;12.40;6.22;;;;;;;;;;5018043;28;20042;-81
2022/11/16 05:50:37;;;;;;;15.30;5.72;;;;;;;;;;5000111;28;20029;-81
2022/11/16 05:53:03;;;;;;;12.98;6.30;;;;;;;;;;5033069;28;20766;-81
2022/11/16 05:55:29;;;;;;;18.25;7.50;;;;;;;;;;5019658;28;20037;-81
2022/11/16 05:57:55;;;;;;;14.70;8.18;;;;;;;;;;5027376;28;20032;-81
2022/11/16 06:00:21;;;;;;;14.00;7.60;;;;;;;;;;5018553;28;20025;-81
2022/11/16 06:02:47;;;;;;;22.77;11.77;;;;;;;;;;5036924;28;20030;-81
2022/11/16 06:05:13;;;;;;;23.42;12.40;;;;;;;;;;5036980;28;20479;-81
2022/11/16 06:07:39;;;;;;;24.27;14.18;;;;;;;;;;5036897;28;20419;-81
2022/11/16 06:10:05;;;;;;;26.55;15.00;;;;;;;;;;5036943;28;20825;-81
2022/11/16 06:12:31;;;;;;;23.60;13.65;;;;;;;;;;5019124;28;20420;-81
2022/11/16 06:14:57;;;;;;;26.30;14.15;;;;;;;;;;5019394;28;20025;-81
2022/11/16 06:17:23;;;;;;;23.20;14.10;;;;;;;;;;5037394;28;20026;-81
2022/11/16 06:19:49;;;;;;;32.70;15.57;;;;;;;;;;5026216;28;20104;-81
2022/11/16 06:22:16;;;;;;;33.05;15.48;;;;;;;;;;5017318;28;20519;-81
2022/11/16 06:24:42;;;;;;;30.13;16.33;;;;;;;;;;5024569;28;20030;-81
2022/11/16 06:27:08;;;;;;;36.35;17.25;;;;;;;;;;5034344;28;20026;-81
2022/11/16 06:29:34;;;;;;;41.47;18.15;;;;;;;;;;5026271;28;20497;-81
2022/11/16 06:32:00;;;;;;;31.42;17.13;;;;;;;;;;5037117;28;20538;-81
2022/11/16 06:34:26;;;;;;;32.00;16.27;;;;;;;;;;5036807;28;20057;-81
2022/11/16 06:36:52;;;;;;;25.08;14.77;;;;;;;;;;5036584;28;20040;-81
2022/11/16 06:39:18;;;;;;;31.60;16.35;;;;;;;;;;5018254;28;20427;-80
2022/11/16 06:41:44;;;;;;;29.48;14.75;;;;;;;;;;5017995;28;20431;-81
2022/11/16 06:44:10;;;;;;;40.45;16.70;;;;;;;;;;5036401;28;20480;-81
2022/11/16 06:46:36;;;;;;;32.25;16.63;;;;;;;;;;5001732;28;20025;-81
2022/11/16 06:49:02;;;;;;;31.58;15.52;;;;;;;;;;5035715;28;20057;-81
2022/11/16 06:51:28;;;;;;;30.73;15.90;;;;;;;;;;5036622;28;20037;-81
2022/11/16 06:53:54;;;;;;;25.90;14.95;;;;;;;;;;5035646;28;20026;-81
2022/11/16 06:56:20;;;;;;;28.65;14.57;;;;;;;;;;5035730;28;20108;-81
2022/11/16 06:58:46;;;;;;;26.55;14.52;;;;;;;;;;5035963;28;20030;-80
2022/11/16 07:01:12;;;;;;;27.10;14.43;;;;;;;;;;5035430;28;20448;-81
2022/11/16 07:03:39;;;;;;;32.15;14.40;;;;;;;;;;5035427;28;20028;-81
2022/11/16 07:06:09;;;;;;;30.60;14.07;;;;;;;;;;5035641;28;20054;-81
2022/11/16 07:08:35;;;;;;;30.50;14.18;;;;;;;;;;5035541;28;20022;-80
2022/11/16 07:11:02;;;;;;;28.75;14.02;;;;;;;;;;5017592;28;20041;-81
2022/11/16 07:13:28;;;;;;;26.70;13.02;;;;;;;;;;5017326;28;20031;-81
2022/11/16 07:15:59;;;;;;;19.65;11.50;;;;;;;;;;5035261;28;20037;-81
2022/11/16 07:18:25;;;;;;;26.92;11.38;;;;;;;;;;5035436;28;20022;-80
2022/11/16 07:20:51;;;;;;;26.85;10.82;;;;;;;;;;5017426;28;20048;-80
2022/11/16 07:23:18;;;;;;;18.17;10.90;;;;;;;;;;5034873;28;20420;-81
2022/11/16 07:25:46;;;;;;;22.10;11.07;;;;;;;;;;5035294;28;20075;-81
2022/11/16 07:28:12;;;;;;;24.27;10.30;;;;;;;;;;5035210;28;20104;-80
2022/11/16 07:30:38;;;;;;;21.92;10.10;;;;;;;;;;5017144;28;20018;-81
2022/11/16 07:33:04;;;;;;;26.50;10.45;;;;;;;;;;4997656;28;20052;-80
2022/11/16 07:35:30;;;;;;;19.38;9.38;;;;;;;;;;5022849;28;20022;-80
2022/11/16 07:37:56;;;;;;;21.60;8.13;;;;;;;;;;5034717;28;20476;-80
2022/11/16 07:40:22;;;;;;;13.07;6.47;;;;;;;;;;5029024;28;20053;-80
2022/11/16 07:42:48;;;;;;;19.35;6.50;;;;;;;;;;4997822;28;20088;-80
2022/11/16 07:45:15;;;;;;;18.20;6.28;;;;;;;;;;5032925;28;20032;-80
2022/11/16 07:47:41;;;;;;;15.25;6.35;;;;;;;;;;5034267;28;20041;-80
2022/11/16 07:50:07;;;;;;;19.45;6.55;;;;;;;;;;5028853;28;20334;-80
2022/11/16 07:52:33;;;;;;;10.98;5.50;;;;;;;;;;5023093;28;20021;-80
2022/11/16 07:55:00;;;;;;;10.20;5.30;;;;;;;;;;5033907;28;20365;-79
2022/11/16 07:57:26;;;;;;;10.57;4.60;;;;;;;;;;5009037;28;20038;-79
2022/11/16 07:59:52;;;;;;;12.05;4.30;;;;;;;;;;5032898;28;20060;-80
2022/11/16 08:02:18;;;;;;;17.50;4.53;;;;;;;;;;5032871;28;20025;-80
2022/11/16 08:04:44;;;;;;;13.00;4.40;;;;;;;;;;5033052;28;20032;-80
2022/11/16 08:07:10;;;;;;;11.93;4.20;;;;;;;;;;5015205;28;20423;-80
2022/11/16 08:09:38;;;;;;;11.45;4.47;;;;;;;;;;5033008;28;20026;-80
2022/11/16 08:12:04;;;;;;;11.68;4.22;;;;;;;;;;5032948;28;20044;-79
2022/11/16 08:14:30;;;;;;;11.07;4.15;;;;;;;;;;5018715;28;20127;-80
2022/11/16 08:16:56;;;;;;;14.30;4.32;;;;;;;;;;4995404;28;20029;-80
2022/11/16 08:19:22;;;;;;;14.18;4.82;;;;;;;;;;5028969;28;20397;-80
2022/11/16 08:21:48;;;;;;;17.00;5.20;;;;;;;;;;5033218;28;20033;-80
2022/11/16 08:24:14;;;;;;;12.23;4.88;;;;;;;;;;5033388;28;20025;-80
2022/11/16 08:26:40;;;;;;;15.65;6.30;;;;;;;;;;5015309;28;20068;-80
2022/11/16 08:29:06;;;;;;;15.88;5.60;;;;;;;;;;4990022;28;20120;-80
2022/11/16 08:31:32;;;;;;;17.63;5.55;;;;;;;;;;4999953;28;20014;-80
2022/11/16 08:33:59;;;;;;;20.10;6.90;;;;;;;;;;5004691;28;20034;-80
2022/11/16 08:36:25;;;;;;;16.48;5.13;;;;;;;;;;5024006;28;20468;-80
2022/11/16 08:38:52;;;;;;;20.00;5.20;;;;;;;;;;5023694;28;20037;-80
2022/11/16 08:41:18;;;;;;;19.42;6.57;;;;;;;;;;5034350;28;20075;-80
2022/11/16 08:43:46;;;;;;;16.50;4.88;;;;;;;;;;5033844;28;20382;-80
2022/11/16 08:46:12;;;;;;;12.00;5.15;;;;;;;;;;5032509;28;20044;-80
2022/11/16 08:48:38;;;;;;;18.88;5.63;;;;;;;;;;5007629;28;20488;-80
2022/11/16 08:51:06;;;;;;;18.63;5.63;;;;;;;;;;5013312;28;20049;-80
2022/11/16 08:53:32;;;;;;;19.55;5.85;;;;;;;;;;5038738;28;20056;-81
2022/11/16 08:56:02;;;;;;;13.40;5.05;;;;;;;;;;5053565;28;20037;-80
2022/11/16 08:58:28;;;;;;;13.27;5.43;;;;;;;;;;5054510;28;20013;-80
2022/11/16 09:00:54;;;;;;;12.65;5.50;;;;;;;;;;5036683;28;20049;-80
2022/11/16 09:03:20;;;;;;;15.10;4.93;;;;;;;;;;5053497;28;20059;-80
2022/11/16 09:05:46;;;;;;;13.98;4.28;;;;;;;;;;5052750;28;20059;-80
2022/11/16 09:08:12;;;;;;;18.58;4.88;;;;;;;;;;5052506;28;20040;-80
2022/11/16 09:10:38;;;;;;;14.95;4.60;;;;;;;;;;5052232;28;20033;-80
2022/11/16 09:13:04;;;;;;;19.65;4.32;;;;;;;;;;5052443;28;20029;-81
2022/11/16 09:15:30;;;;;;;17.02;4.60;;;;;;;;;;5052406;28;20376;-80
2022/11/16 09:17:56;;;;;;;14.68;4.20;;;;;;;;;;5034705;28;20487;-80
2022/11/16 09:20:23;;;;;;;10.48;4.03;;;;;;;;;;5018395;28;20117;-80
2022/11/16 09:22:49;;;;;;;12.05;4.10;;;;;;;;;;5030254;28;20033;-80
2022/11/16 09:25:15;;;;;;;17.52;3.92;;;;;;;;;;5026797;28;20472;-80
2022/11/16 09:27:41;;;;;;;20.70;4.68;;;;;;;;;;4998976;28;20526;-80
2022/11/16 09:30:07;;;;;;;26.13;5.03;;;;;;;;;;5032113;28;20060;-80
2022/11/16 09:32:33;;;;;;;19.73;3.90;;;;;;;;;;5014451;28;20045;-84
2022/11/16 09:34:59;;;;;;;13.50;3.90;;;;;;;;;;5012633;28;20144;-80
2022/11/16 09:37:25;;;;;;;11.50;3.70;;;;;;;;;;5025923;28;20579;-79
2022/11/16 09:39:52;;;;;;;14.55;4.13;;;;;;;;;;5006413;28;20022;-79
2022/11/16 09:42:36;;;;;;;20.90;3.83;;;;;;;;;;5031531;28;20021;-79
2022/11/16 09:45:07;;;;;;;17.92;3.10;;;;;;;;;;5028837;28;20372;-79
2022/11/16 09:47:37;;;;;;;15.05;2.90;;;;;;;;;;5014102;28;20039;-80
2022/11/16 09:50:05;;;;;;;14.43;3.10;;;;;;;;;;5016685;28;20069;-79
2022/11/16 09:52:36;;;;;;;15.30;3.72;;;;;;;;;;5009931;28;20033;-80
2022/11/16 09:55:14;;;;;;;16.85;3.17;;;;;;;;;;5038617;28;20061;-79
2022/11/16 09:57:40;;;;;;;18.98;3.78;;;;;;;;;;5018956;28;20123;-79
2022/11/16 10:00:24;;;;;;;16.52;4.00;;;;;;;;;;5017488;28;20175;-79
2022/11/16 10:02:58;;;;;;;12.00;2.90;;;;;;;;;;5020500;28;20033;-79
2022/11/16 10:05:46;;;;;;;15.07;3.25;;;;;;;;;;5055210;28;20031;-79
2022/11/16 10:08:30;;;;;;;14.98;3.00;;;;;;;;;;5054947;28;20028;-80
2022/11/16 10:11:15;;;;;;;14.68;2.67;;;;;;;;;;5037257;28;20486;-80
2022/11/16 10:13:50;;;;;;;17.35;3.70;;;;;;;;;;5055232;28;20100;-79
2022/11/16 10:16:16;;;;;;;7.95;2.70;;;;;;;;;;5048380;28;20518;-81
2022/11/16 10:19:01;;;;;;;13.98;3.20;;;;;;;;;;5046784;28;20029;-80
2022/11/16 10:21:37;;;;;;;12.55;2.78;;;;;;;;;;5052927;28;20021;-82
2022/11/16 10:24:19;;;;;;;13.82;2.70;;;;;;;;;;5034991;28;20033;-82
2022/11/16 10:27:04;;;;;;;12.93;2.55;;;;;;;;;;5017159;28;20032;-82
2022/11/16 10:30:00;;;;;;;6.30;2.00;;;;;;;;;;5017074;28;20479;-82
2022/11/16 10:32:28;;;;;;;20.98;2.92;;;;;;;;;;5008274;28;20033;-82
2022/11/16 10:34:55;;;;;;;13.07;3.13;;;;;;;;;;5036293;28;20538;-82
2022/11/16 10:37:22;;;;;;;13.23;2.63;;;;;;;;;;5037154;28;20033;-80
2022/11/16 10:39:51;;;;;;;9.32;2.17;;;;;;;;;;5033695;28;20447;-79
2022/11/16 10:42:38;;;;;;;14.88;2.72;;;;;;;;;;5034580;28;20021;-79
2022/11/16 10:45:10;;;;;;;15.60;2.35;;;;;;;;;;5026532;28;20364;-80
2022/11/16 10:47:37;;;;;;;14.30;3.00;;;;;;;;;;5034265;28;20029;-81
2022/11/16 10:50:19;;;;;;;9.55;1.90;;;;;;;;;;5034214;28;20046;-81
2022/11/16 10:52:45;;;;;;;10.50;2.17;;;;;;;;;;5019636;28;20088;-82
2022/11/16 10:55:15;;;;;;;9.77;2.20;;;;;;;;;;5014975;28;20042;-81
2022/11/16 10:57:55;;;;;;;10.02;1.95;;;;;;;;;;5018016;28;20032;-80
2022/11/16 11:00:33;;;;;;;9.25;2.00;;;;;;;;;;5032520;28;20057;-81
2022/11/16 11:02:59;;;;;;;10.02;2.47;;;;;;;;;;5036118;28;20108;-82
2022/11/16 11:05:25;;;;;;;11.65;2.65;;;;;;;;;;5053705;28;20036;-81
2022/11/16 11:08:00;;;;;;;10.80;2.05;;;;;;;;;;5036318;28;20021;-80
2022/11/16 11:10:26;;;;;;;11.40;2.00;;;;;;;;;;5053898;28;20027;-81
2022/11/16 11:13:01;;;;;;;9.75;2.38;;;;;;;;;;5031328;28;20107;-81
2022/11/16 11:15:27;;;;;;;6.88;1.90;;;;;;;;;;5016882;28;20041;-80
2022/11/16 11:18:10;;;;;;;9.30;2.10;;;;;;;;;;5033674;28;20029;-81
2022/11/16 11:20:37;;;;;;;10.18;1.67;;;;;;;;;;5042343;28;20108;-80
2022/11/16 11:23:11;;;;;;;12.48;1.85;;;;;;;;;;5035909;28;20029;-80
2022/11/16 11:25:40;;;;;;;13.13;1.80;;;;;;;;;;5053586;28;20370;-81
2022/11/16 11:28:18;;;;;;;3.95;1.30;;;;;;;;;;5054363;28;20025;-79
2022/11/16 11:30:52;;;;;;;9.35;2.25;;;;;;;;;;5018434;28;20025;-80
2022/11/16 11:33:20;;;;;;;12.88;1.80;;;;;;;;;;5034442;28;20361;-80
2022/11/16 11:35:55;;;;;;;8.65;1.60;;;;;;;;;;5030867;28;20059;-80
2022/11/16 11:38:21;;;;;;;7.78;1.50;;;;;;;;;;5028251;28;20094;-80
2022/11/16 11:40:56;;;;;;;9.75;2.53;;;;;;;;;;5007321;28;20410;-79
2022/11/16 11:43:26;;;;;;;5.97;1.40;;;;;;;;;;5036234;28;20025;-80
2022/11/16 11:46:11;;;;;;;7.53;1.45;;;;;;;;;;5007237;28;20029;-80
2022/11/16 11:48:37;;;;;;;7.05;1.35;;;;;;;;;;5031590;28;20479;-80
2022/11/16 11:51:10;;;;;;;6.82;1.40;;;;;;;;;;5035918;28;20371;-79
2022/11/16 11:53:53;;;;;;;11.70;1.63;;;;;;;;;;5032422;28;20364;-80
2022/11/16 11:56:19;;;;;;;9.35;1.40;;;;;;;;;;5035247;28;20076;-80
2022/11/16 11:58:46;;;;;;;5.75;1.52;;;;;;;;;;5026004;28;20025;-80
2022/11/16 12:01:31;;;;;;;10.65;1.60;;;;;;;;;;5025279;28;20022;-80
2022/11/16 12:04:15;;;;;;;11.07;1.40;;;;;;;;;;5033416;28;20117;-80
2022/11/16 12:06:56;;;;;;;9.13;1.50;;;;;;;;;;5028450;28;20498;-80
2022/11/16 12:09:42;;;;;;;9.10;1.02;;;;;;;;;;5018080;28;20447;-80
2022/11/16 12:12:31;;;;;;;8.65;1.25;;;;;;;;;;5024216;28;20018;-80
2022/11/16 12:15:15;;;;;;;13.35;1.35;;;;;;;;;;5011609;28;20022;-80
2022/11/16 12:17:41;;;;;;;6.82;1.63;;;;;;;;;;5013209;28;20125;-80
2022/11/16 12:20:16;;;;;;;6.85;1.60;;;;;;;;;;5012970;28;20053;-80
2022/11/16 12:23:01;;;;;;;12.75;1.80;;;;;;;;;;5012869;28;20022;-79
2022/11/16 12:25:36;;;;;;;7.50;1.48;;;;;;;;;;5013258;28;20045;-79
2022/11/16 12:28:16;;;;;;;11.43;1.98;;;;;;;;;;5051877;28;20028;-79
2022/11/16 12:31:01;;;;;;;9.75;1.73;;;;;;;;;;5032697;28;20489;-79
2022/11/16 12:33:39;;;;;;;8.90;1.90;;;;;;;;;;5014947;28;20052;-79
2022/11/16 12:36:10;;;;;;;10.38;2.33;;;;;;;;;;5015356;28;20029;-79
2022/11/16 12:38:39;;;;;;;11.40;2.50;;;;;;;;;;5014682;28;20025;-79
2022/11/16 12:41:24;;;;;;;10.90;2.92;;;;;;;;;;5013935;28;20117;-79
2022/11/16 12:44:01;;;;;;;11.40;2.20;;;;;;;;;;5015058;28;20029;-79
2022/11/16 12:46:30;;;;;;;14.63;2.17;;;;;;;;;;5014780;28;20376;-79
2022/11/16 12:49:02;;;;;;;13.05;2.20;;;;;;;;;;4981802;28;20098;-79
2022/11/16 12:51:28;;;;;;;10.32;2.20;;;;;;;;;;4984883;28;20029;-79
2022/11/16 12:53:57;;;;;;;15.20;2.72;;;;;;;;;;4992291;28;20445;-79
2022/11/16 12:56:26;;;;;;;14.43;2.70;;;;;;;;;;4991952;28;20117;-79
2022/11/16 12:59:01;;;;;;;8.63;2.03;;;;;;;;;;4988789;28;20030;-79
2022/11/16 13:01:43;;;;;;;12.38;2.10;;;;;;;;;;4972273;28;20027;-79
2022/11/16 13:04:17;;;;;;;16.80;1.92;;;;;;;;;;4972837;28;20030;-79
2022/11/16 13:06:51;;;;;;;7.82;1.85;;;;;;;;;;4972959;28;20027;-79
2022/11/16 13:09:22;;;;;;;10.93;1.60;;;;;;;;;;4973230;28;20042;-79
2022/11/16 13:11:54;;;;;;;13.70;1.75;;;;;;;;;;4976441;28;20074;-79
2022/11/16 13:14:41;;;;;;;10.88;1.65;;;;;;;;;;4976156;28;20034;-79
2022/11/16 13:17:07;;;;;;;9.93;1.77;;;;;;;;;;4975999;28;20042;-79
2022/11/16 13:19:39;;;;;;;9.52;1.20;;;;;;;;;;4980058;28;20076;-79
2022/11/16 13:22:16;;;;;;;11.50;1.58;;;;;;;;;;4993860;28;20026;-79
2022/11/16 13:24:57;;;;;;;10.65;1.52;;;;;;;;;;4994657;28;20038;-79
2022/11/16 13:27:42;;;;;;;12.77;1.40;;;;;;;;;;4996684;28;20026;-79
2022/11/16 13:30:14;;;;;;;9.10;1.38;;;;;;;;;;4981228;28;20031;-79
2022/11/16 13:32:40;;;;;;;;;;;;;;;;;;4977491;28;20031;-79
2022/11/16 13:35:11;;;;;;;6.55;1.35;;;;;;;;;;4975996;28;19906;-79
2022/11/16 13:37:37;;;;;;;6.15;1.23;;;;;;;;;;4982756;28;20053;-79
2022/11/16 13:40:03;;;;;;;16.25;2.58;;;;;;;;;;4992481;28;20444;-79
2022/11/16 13:42:49;;;;;;;9.07;1.60;;;;;;;;;;4996284;28;20105;-79
2022/11/16 13:45:17;;;;;;;4.68;1.33;;;;;;;;;;4988182;28;20473;-79
2022/11/16 13:47:54;;;;;;;12.65;1.70;;;;;;;;;;4996593;28;20026;-79
2022/11/16 13:50:22;;;;;;;7.30;1.35;;;;;;;;;;5024359;28;20056;-79
2022/11/16 13:52:49;;;;;;;6.07;1.50;;;;;;;;;;5015705;28;20034;-79
2022/11/16 13:55:25;;;;;;;13.05;2.30;;;;;;;;;;5015609;28;20026;-79
2022/11/16 13:57:53;;;;;;;11.65;1.65;;;;;;;;;;5026999;28;20071;-79
2022/11/16 14:00:23;;;;;;;9.52;1.33;;;;;;;;;;5035913;28;20025;-79
2022/11/16 14:03:09;;;;;;;5.85;1.10;;;;;;;;;;5035543;28;20055;-84
2022/11/16 14:05:40;;;;;;;7.18;1.30;;;;;;;;;;5054964;28;20021;-84
2022/11/16 14:08:32;;;;;;;8.25;1.35;;;;;;;;;;5055321;28;20375;-84
2022/11/16 14:10:59;;;;;;;6.55;1.40;;;;;;;;;;5011016;28;20173;-85
2022/11/16 14:13:35;;;;;;;4.57;1.10;;;;;;;;;;5037410;28;20025;-84
2022/11/16 14:16:20;;;;;;;6.18;1.50;;;;;;;;;;5054918;28;20029;-84
2022/11/16 14:18:51;;;;;;;11.63;1.75;;;;;;;;;;5055115;28;20021;-85
2022/11/16 14:21:20;;;;;;;4.93;1.20;;;;;;;;;;5054401;28;20025;-84
2022/11/16 14:23:46;;;;;;;4.05;0.98;;;;;;;;;;5054992;28;20418;-85
2022/11/16 14:26:20;;;;;;;7.45;1.10;;;;;;;;;;5055204;28;20021;-85
2022/11/16 14:28:49;;;;;;;6.63;1.55;;;;;;;;;;5050973;28;20068;-84
2022/11/16 14:31:25;;;;;;;9.30;1.40;;;;;;;;;;5034911;28;20029;-85
2022/11/16 14:33:53;;;;;;;5.47;1.48;;;;;;;;;;5017064;28;20038;-84
2022/11/16 14:36:34;;;;;;;7.18;1.40;;;;;;;;;;5034900;28;20018;-84
2022/11/16 14:39:14;;;;;;;10.90;1.65;;;;;;;;;;5033962;28;20018;-84
2022/11/16 14:41:42;;;;;;;7.63;1.67;;;;;;;;;;5034111;28;20028;-81
2022/11/16 14:44:09;;;;;;;8.27;1.45;;;;;;;;;;5032494;28;20045;-80
2022/11/16 14:46:36;;;;;;;5.03;1.10;;;;;;;;;;5036941;28;20427;-79
2022/11/16 14:49:02;;;;;;;4.22;1.10;;;;;;;;;;5035938;28;20144;-85
2022/11/16 14:51:33;;;;;;;8.93;1.10;;;;;;;;;;5017490;28;20033;-85
2022/11/16 14:54:01;;;;;;;4.72;1.20;;;;;;;;;;5035719;28;20476;-84
2022/11/16 14:56:27;;;;;;;8.57;1.55;;;;;;;;;;5034996;28;20127;-85
2022/11/16 14:58:58;;;;;;;11.43;1.85;;;;;;;;;;5017090;28;20909;-80
2022/11/16 15:01:27;;;;;;;7.75;1.65;;;;;;;;;;5022148;28;20065;-80
2022/11/16 15:04:11;;;;;;;13.20;1.88;;;;;;;;;;5017132;28;20026;-80
2022/11/16 15:06:56;;;;;;;6.50;1.63;;;;;;;;;;5034374;28;20030;-79
2022/11/16 15:09:27;;;;;;;10.05;1.70;;;;;;;;;;5034618;28;20375;-80
2022/11/16 15:14:41;;;;;;;5.13;1.58;;;;;;;;;;5035163;28;20152;-79
2022/11/16 15:17:08;;;;;;;10.85;1.60;;;;;;;;;;5014759;28;20033;-80
2022/11/16 15:19:34;;;;;;;7.93;1.33;;;;;;;;;;5033995;28;20037;-79
2022/11/16 15:22:01;;;;;;;12.55;2.67;;;;;;;;;;5033999;28;20017;-79
2022/11/16 15:24:29;;;;;;;5.85;1.27;;;;;;;;;;5034007;28;20026;-79
2022/11/16 15:27:18;;;;;;;6.90;1.73;;;;;;;;;;5016213;28;20029;-80